sensor_id;sensor_type;location;lat;lon;timestamp;P1;durP1;ratioP1;P2;durP2;ratioP2
8046;SDS011;67150;42.516;23.358;2023-03-01T00:00:19;1.77;;;1.67;;
8046;SDS011;67150;42.516;23.358;2023-03-01T00:03:06;1.80;;;1.70;;
8046;SDS011;67150;42.516;23.358;2023-03-01T00:05:52;1.80;;;1.70;;
8046;SDS011;67150;42.516;23.358;2023-03-01T00:08:42;1.60;;;1.60;;
8046;SDS011;67150;42.516;23.358;2023-03-01T00:11:29;1.70;;;1.60;;
8046;SDS011;67150;42.516;23.358;2023-03-01T00:14:16;1.70;;;1.60;;
8046;SDS011;67150;42.516;23.358;2023-03-01T00:17:02;1.50;;;1.50;;
8046;SDS011;67150;42.516;23.358;2023-03-01T00:19:47;1.50;;;1.50;;
8046;SDS011;67150;42.516;23.358;2023-03-01T00:22:33;1.40;;;1.40;;
8046;SDS011;67150;42.516;23.358;2023-03-01T00:25:20;1.50;;;1.40;;
8046;SDS011;67150;42.516;23.358;2023-03-01T00:28:06;1.40;;;1.40;;
8046;SDS011;67150;42.516;23.358;2023-03-01T00:30:52;1.33;;;1.33;;
8046;SDS011;67150;42.516;23.358;2023-03-01T00:33:37;1.40;;;1.40;;
8046;SDS011;67150;42.516;23.358;2023-03-01T00:36:24;1.30;;;1.30;;
8046;SDS011;67150;42.516;23.358;2023-03-01T00:39:12;1.30;;;1.30;;
8046;SDS011;67150;42.516;23.358;2023-03-01T00:42:01;1.57;;;1.47;;
8046;SDS011;67150;42.516;23.358;2023-03-01T00:44:46;1.20;;;1.20;;
8046;SDS011;67150;42.516;23.358;2023-03-01T00:47:32;1.40;;;1.40;;
8046;SDS011;67150;42.516;23.358;2023-03-01T00:50:18;1.20;;;1.20;;
8046;SDS011;67150;42.516;23.358;2023-03-01T00:53:04;1.30;;;1.30;;
8046;SDS011;67150;42.516;23.358;2023-03-01T00:55:50;1.40;;;1.30;;
8046;SDS011;67150;42.516;23.358;2023-03-01T00:58:38;1.17;;;1.17;;
8046;SDS011;67150;42.516;23.358;2023-03-01T01:01:25;1.10;;;1.10;;
8046;SDS011;67150;42.516;23.358;2023-03-01T01:04:14;1.10;;;1.10;;
8046;SDS011;67150;42.516;23.358;2023-03-01T01:07:00;1.20;;;1.20;;
8046;SDS011;67150;42.516;23.358;2023-03-01T01:09:46;1.20;;;1.20;;
8046;SDS011;67150;42.516;23.358;2023-03-01T01:12:32;1.20;;;1.20;;
8046;SDS011;67150;42.516;23.358;2023-03-01T01:15:20;2.10;;;1.20;;
8046;SDS011;67150;42.516;23.358;2023-03-01T01:18:06;1.20;;;1.20;;
8046;SDS011;67150;42.516;23.358;2023-03-01T01:20:51;1.40;;;1.30;;
8046;SDS011;67150;42.516;23.358;2023-03-01T01:23:38;1.20;;;1.20;;
8046;SDS011;67150;42.516;23.358;2023-03-01T01:26:26;1.10;;;1.10;;
8046;SDS011;67150;42.516;23.358;2023-03-01T01:29:14;1.00;;;1.00;;
8046;SDS011;67150;42.516;23.358;2023-03-01T01:32:01;1.10;;;1.10;;
8046;SDS011;67150;42.516;23.358;2023-03-01T01:34:47;1.10;;;1.10;;
8046;SDS011;67150;42.516;23.358;2023-03-01T01:37:34;1.10;;;1.10;;
8046;SDS011;67150;42.516;23.358;2023-03-01T01:40:20;1.10;;;1.10;;
8046;SDS011;67150;42.516;23.358;2023-03-01T01:43:20;1.10;;;1.10;;
8046;SDS011;67150;42.516;23.358;2023-03-01T01:46:10;1.07;;;1.07;;
8046;SDS011;67150;42.516;23.358;2023-03-01T01:49:05;1.10;;;1.10;;
8046;SDS011;67150;42.516;23.358;2023-03-01T01:51:59;1.20;;;1.20;;
8046;SDS011;67150;42.516;23.358;2023-03-01T01:54:50;1.20;;;1.20;;
8046;SDS011;67150;42.516;23.358;2023-03-01T01:57:41;3.13;;;1.30;;
8046;SDS011;67150;42.516;23.358;2023-03-01T02:00:30;1.27;;;1.27;;
8046;SDS011;67150;42.516;23.358;2023-03-01T02:03:18;1.20;;;1.20;;
8046;SDS011;67150;42.516;23.358;2023-03-01T02:06:12;1.20;;;1.20;;
8046;SDS011;67150;42.516;23.358;2023-03-01T02:09:03;1.20;;;1.20;;
8046;SDS011;67150;42.516;23.358;2023-03-01T02:11:56;1.20;;;1.20;;
8046;SDS011;67150;42.516;23.358;2023-03-01T02:14:43;1.13;;;1.13;;
8046;SDS011;67150;42.516;23.358;2023-03-01T02:17:29;1.30;;;1.30;;
8046;SDS011;67150;42.516;23.358;2023-03-01T02:20:16;1.30;;;1.30;;
8046;SDS011;67150;42.516;23.358;2023-03-01T02:23:13;1.57;;;1.47;;
8046;SDS011;67150;42.516;23.358;2023-03-01T02:26:01;1.30;;;1.30;;
8046;SDS011;67150;42.516;23.358;2023-03-01T02:28:54;1.43;;;1.43;;
8046;SDS011;67150;42.516;23.358;2023-03-01T02:31:40;1.40;;;1.40;;
8046;SDS011;67150;42.516;23.358;2023-03-01T02:34:25;1.60;;;1.50;;
8046;SDS011;67150;42.516;23.358;2023-03-01T02:37:13;1.50;;;1.50;;
8046;SDS011;67150;42.516;23.358;2023-03-01T02:40:06;1.40;;;1.40;;
8046;SDS011;67150;42.516;23.358;2023-03-01T02:42:57;1.60;;;1.50;;
8046;SDS011;67150;42.516;23.358;2023-03-01T02:45:49;1.70;;;1.60;;
8046;SDS011;67150;42.516;23.358;2023-03-01T02:48:40;1.43;;;1.43;;
8046;SDS011;67150;42.516;23.358;2023-03-01T02:51:32;1.83;;;1.73;;
8046;SDS011;67150;42.516;23.358;2023-03-01T02:54:31;1.60;;;1.50;;
8046;SDS011;67150;42.516;23.358;2023-03-01T02:57:21;1.70;;;1.60;;
8046;SDS011;67150;42.516;23.358;2023-03-01T03:00:09;1.77;;;1.70;;
8046;SDS011;67150;42.516;23.358;2023-03-01T03:03:05;1.70;;;1.60;;
8046;SDS011;67150;42.516;23.358;2023-03-01T03:05:51;1.87;;;1.77;;
8046;SDS011;67150;42.516;23.358;2023-03-01T03:08:37;1.97;;;1.87;;
8046;SDS011;67150;42.516;23.358;2023-03-01T03:11:23;1.90;;;1.80;;
8046;SDS011;67150;42.516;23.358;2023-03-01T03:14:09;1.90;;;1.80;;
8046;SDS011;67150;42.516;23.358;2023-03-01T03:16:56;1.80;;;1.70;;
8046;SDS011;67150;42.516;23.358;2023-03-01T03:19:43;1.80;;;1.70;;
8046;SDS011;67150;42.516;23.358;2023-03-01T03:22:29;1.80;;;1.70;;
8046;SDS011;67150;42.516;23.358;2023-03-01T03:25:15;1.90;;;1.80;;
8046;SDS011;67150;42.516;23.358;2023-03-01T03:28:01;1.60;;;1.60;;
8046;SDS011;67150;42.516;23.358;2023-03-01T03:30:53;1.70;;;1.60;;
8046;SDS011;67150;42.516;23.358;2023-03-01T03:33:39;1.80;;;1.70;;
8046;SDS011;67150;42.516;23.358;2023-03-01T03:36:26;1.80;;;1.70;;
8046;SDS011;67150;42.516;23.358;2023-03-01T03:39:12;2.00;;;1.90;;
8046;SDS011;67150;42.516;23.358;2023-03-01T03:41:57;2.00;;;1.90;;
8046;SDS011;67150;42.516;23.358;2023-03-01T03:44:46;2.00;;;1.90;;
8046;SDS011;67150;42.516;23.358;2023-03-01T03:47:32;2.10;;;1.90;;
8046;SDS011;67150;42.516;23.358;2023-03-01T03:50:18;1.97;;;1.87;;
8046;SDS011;67150;42.516;23.358;2023-03-01T03:53:06;2.00;;;1.90;;
8046;SDS011;67150;42.516;23.358;2023-03-01T03:55:54;2.10;;;2.00;;
8046;SDS011;67150;42.516;23.358;2023-03-01T03:58:41;2.00;;;1.90;;
8046;SDS011;67150;42.516;23.358;2023-03-01T04:01:26;2.00;;;1.90;;
8046;SDS011;67150;42.516;23.358;2023-03-01T04:04:12;2.10;;;2.00;;
8046;SDS011;67150;42.516;23.358;2023-03-01T04:07:01;2.00;;;1.90;;
8046;SDS011;67150;42.516;23.358;2023-03-01T04:09:49;1.93;;;1.83;;
8046;SDS011;67150;42.516;23.358;2023-03-01T04:12:35;1.80;;;1.70;;
8046;SDS011;67150;42.516;23.358;2023-03-01T04:15:21;1.90;;;1.80;;
8046;SDS011;67150;42.516;23.358;2023-03-01T04:18:08;1.80;;;1.70;;
8046;SDS011;67150;42.516;23.358;2023-03-01T04:20:56;1.90;;;1.80;;
8046;SDS011;67150;42.516;23.358;2023-03-01T04:23:42;1.70;;;1.60;;
8046;SDS011;67150;42.516;23.358;2023-03-01T04:26:29;1.90;;;1.80;;
8046;SDS011;67150;42.516;23.358;2023-03-01T04:29:15;1.90;;;1.80;;
8046;SDS011;67150;42.516;23.358;2023-03-01T04:32:01;1.80;;;1.70;;
8046;SDS011;67150;42.516;23.358;2023-03-01T04:34:47;1.90;;;1.80;;
8046;SDS011;67150;42.516;23.358;2023-03-01T04:37:33;2.00;;;1.90;;
8046;SDS011;67150;42.516;23.358;2023-03-01T04:40:18;1.80;;;1.70;;
8046;SDS011;67150;42.516;23.358;2023-03-01T04:43:06;2.50;;;1.70;;
8046;SDS011;67150;42.516;23.358;2023-03-01T04:45:53;1.40;;;1.40;;
8046;SDS011;67150;42.516;23.358;2023-03-01T04:48:39;1.60;;;1.60;;
8046;SDS011;67150;42.516;23.358;2023-03-01T04:51:26;1.97;;;1.87;;
8046;SDS011;67150;42.516;23.358;2023-03-01T04:54:12;1.90;;;1.80;;
8046;SDS011;67150;42.516;23.358;2023-03-01T04:56:58;1.80;;;1.70;;
8046;SDS011;67150;42.516;23.358;2023-03-01T04:59:45;1.90;;;1.80;;
8046;SDS011;67150;42.516;23.358;2023-03-01T05:02:31;1.73;;;1.63;;
8046;SDS011;67150;42.516;23.358;2023-03-01T05:05:17;1.87;;;1.77;;
8046;SDS011;67150;42.516;23.358;2023-03-01T05:08:04;1.87;;;1.77;;
8046;SDS011;67150;42.516;23.358;2023-03-01T05:10:52;2.07;;;1.87;;
8046;SDS011;67150;42.516;23.358;2023-03-01T05:13:38;1.93;;;1.83;;
8046;SDS011;67150;42.516;23.358;2023-03-01T05:16:26;1.90;;;1.80;;
8046;SDS011;67150;42.516;23.358;2023-03-01T05:19:11;1.90;;;1.80;;
8046;SDS011;67150;42.516;23.358;2023-03-01T05:21:59;2.07;;;1.97;;
8046;SDS011;67150;42.516;23.358;2023-03-01T05:24:48;1.93;;;1.83;;
8046;SDS011;67150;42.516;23.358;2023-03-01T05:27:34;2.00;;;1.90;;
8046;SDS011;67150;42.516;23.358;2023-03-01T05:30:20;1.87;;;1.77;;
8046;SDS011;67150;42.516;23.358;2023-03-01T05:33:08;1.90;;;1.80;;
8046;SDS011;67150;42.516;23.358;2023-03-01T05:35:59;2.10;;;2.00;;
8046;SDS011;67150;42.516;23.358;2023-03-01T05:38:45;1.90;;;1.80;;
8046;SDS011;67150;42.516;23.358;2023-03-01T05:41:31;1.90;;;1.80;;
8046;SDS011;67150;42.516;23.358;2023-03-01T05:44:17;2.03;;;1.93;;
8046;SDS011;67150;42.516;23.358;2023-03-01T05:47:03;1.90;;;1.80;;
8046;SDS011;67150;42.516;23.358;2023-03-01T05:49:50;2.00;;;1.90;;
8046;SDS011;67150;42.516;23.358;2023-03-01T05:52:36;2.00;;;1.90;;
8046;SDS011;67150;42.516;23.358;2023-03-01T05:55:22;2.40;;;2.20;;
8046;SDS011;67150;42.516;23.358;2023-03-01T05:58:10;2.13;;;2.03;;
8046;SDS011;67150;42.516;23.358;2023-03-01T06:00:57;1.83;;;1.73;;
8046;SDS011;67150;42.516;23.358;2023-03-01T06:03:43;2.00;;;1.90;;
8046;SDS011;67150;42.516;23.358;2023-03-01T06:06:32;2.10;;;2.00;;
8046;SDS011;67150;42.516;23.358;2023-03-01T06:09:18;2.00;;;1.90;;
8046;SDS011;67150;42.516;23.358;2023-03-01T06:12:04;2.03;;;1.93;;
8046;SDS011;67150;42.516;23.358;2023-03-01T06:14:50;2.00;;;1.90;;
8046;SDS011;67150;42.516;23.358;2023-03-01T06:17:37;2.07;;;1.97;;
8046;SDS011;67150;42.516;23.358;2023-03-01T06:20:26;1.77;;;1.67;;
8046;SDS011;67150;42.516;23.358;2023-03-01T06:23:14;2.10;;;2.00;;
8046;SDS011;67150;42.516;23.358;2023-03-01T06:26:00;2.70;;;1.93;;
8046;SDS011;67150;42.516;23.358;2023-03-01T06:28:50;2.10;;;2.00;;
8046;SDS011;67150;42.516;23.358;2023-03-01T06:31:35;2.30;;;2.10;;
8046;SDS011;67150;42.516;23.358;2023-03-01T06:34:21;2.10;;;2.00;;
8046;SDS011;67150;42.516;23.358;2023-03-01T06:37:07;2.80;;;1.80;;
8046;SDS011;67150;42.516;23.358;2023-03-01T06:39:54;2.00;;;1.90;;
8046;SDS011;67150;42.516;23.358;2023-03-01T06:42:42;2.13;;;2.03;;
8046;SDS011;67150;42.516;23.358;2023-03-01T06:45:28;2.00;;;1.90;;
8046;SDS011;67150;42.516;23.358;2023-03-01T06:48:14;2.00;;;1.90;;
8046;SDS011;67150;42.516;23.358;2023-03-01T06:51:00;1.93;;;1.83;;
8046;SDS011;67150;42.516;23.358;2023-03-01T06:53:46;2.20;;;2.10;;
8046;SDS011;67150;42.516;23.358;2023-03-01T06:56:34;2.03;;;1.93;;
8046;SDS011;67150;42.516;23.358;2023-03-01T06:59:19;2.20;;;2.10;;
8046;SDS011;67150;42.516;23.358;2023-03-01T07:02:05;2.00;;;1.90;;
8046;SDS011;67150;42.516;23.358;2023-03-01T07:04:51;2.00;;;1.90;;
8046;SDS011;67150;42.516;23.358;2023-03-01T07:07:38;1.90;;;1.80;;
8046;SDS011;67150;42.516;23.358;2023-03-01T07:10:24;1.90;;;1.80;;
8046;SDS011;67150;42.516;23.358;2023-03-01T07:13:11;1.97;;;1.87;;
8046;SDS011;67150;42.516;23.358;2023-03-01T07:15:57;1.80;;;1.70;;
8046;SDS011;67150;42.516;23.358;2023-03-01T07:18:42;2.00;;;1.90;;
8046;SDS011;67150;42.516;23.358;2023-03-01T07:21:28;2.03;;;1.93;;
8046;SDS011;67150;42.516;23.358;2023-03-01T07:24:14;1.90;;;1.80;;
8046;SDS011;67150;42.516;23.358;2023-03-01T07:27:00;1.87;;;1.77;;
8046;SDS011;67150;42.516;23.358;2023-03-01T07:29:47;1.73;;;1.63;;
8046;SDS011;67150;42.516;23.358;2023-03-01T07:32:33;2.07;;;1.97;;
8046;SDS011;67150;42.516;23.358;2023-03-01T07:35:18;2.00;;;1.90;;
8046;SDS011;67150;42.516;23.358;2023-03-01T07:38:04;1.90;;;1.80;;
8046;SDS011;67150;42.516;23.358;2023-03-01T07:40:50;2.00;;;1.90;;
8046;SDS011;67150;42.516;23.358;2023-03-01T07:43:36;2.13;;;2.03;;
8046;SDS011;67150;42.516;23.358;2023-03-01T07:46:23;2.10;;;2.00;;
8046;SDS011;67150;42.516;23.358;2023-03-01T07:49:09;2.33;;;2.13;;
8046;SDS011;67150;42.516;23.358;2023-03-01T07:51:55;2.10;;;2.00;;
8046;SDS011;67150;42.516;23.358;2023-03-01T07:54:42;2.10;;;2.00;;
8046;SDS011;67150;42.516;23.358;2023-03-01T07:57:28;2.20;;;2.10;;
8046;SDS011;67150;42.516;23.358;2023-03-01T08:00:15;2.20;;;2.10;;
8046;SDS011;67150;42.516;23.358;2023-03-01T08:03:03;2.00;;;1.90;;
8046;SDS011;67150;42.516;23.358;2023-03-01T08:05:49;1.90;;;1.80;;
8046;SDS011;67150;42.516;23.358;2023-03-01T08:08:34;2.10;;;2.00;;
8046;SDS011;67150;42.516;23.358;2023-03-01T08:11:20;2.10;;;2.00;;
8046;SDS011;67150;42.516;23.358;2023-03-01T08:14:07;1.90;;;1.80;;
8046;SDS011;67150;42.516;23.358;2023-03-01T08:16:53;2.97;;;1.90;;
8046;SDS011;67150;42.516;23.358;2023-03-01T08:19:40;2.00;;;1.90;;
8046;SDS011;67150;42.516;23.358;2023-03-01T08:22:25;2.13;;;2.03;;
8046;SDS011;67150;42.516;23.358;2023-03-01T08:25:11;1.90;;;1.80;;
8046;SDS011;67150;42.516;23.358;2023-03-01T08:27:57;2.67;;;1.83;;
8046;SDS011;67150;42.516;23.358;2023-03-01T08:30:42;2.10;;;2.00;;
8046;SDS011;67150;42.516;23.358;2023-03-01T08:33:30;1.97;;;1.87;;
8046;SDS011;67150;42.516;23.358;2023-03-01T08:36:17;2.07;;;1.90;;
8046;SDS011;67150;42.516;23.358;2023-03-01T08:39:04;2.00;;;1.90;;
8046;SDS011;67150;42.516;23.358;2023-03-01T08:41:51;2.13;;;2.03;;
8046;SDS011;67150;42.516;23.358;2023-03-01T08:44:37;2.10;;;2.00;;
8046;SDS011;67150;42.516;23.358;2023-03-01T08:47:23;2.20;;;2.00;;
8046;SDS011;67150;42.516;23.358;2023-03-01T08:50:10;2.00;;;1.90;;
8046;SDS011;67150;42.516;23.358;2023-03-01T08:52:57;1.90;;;1.80;;
8046;SDS011;67150;42.516;23.358;2023-03-01T08:55:43;2.00;;;1.90;;
8046;SDS011;67150;42.516;23.358;2023-03-01T08:58:30;2.10;;;2.00;;
8046;SDS011;67150;42.516;23.358;2023-03-01T09:01:16;1.90;;;1.80;;
8046;SDS011;67150;42.516;23.358;2023-03-01T09:04:03;2.20;;;2.10;;
8046;SDS011;67150;42.516;23.358;2023-03-01T09:06:50;1.90;;;1.80;;
8046;SDS011;67150;42.516;23.358;2023-03-01T09:09:37;2.13;;;2.03;;
8046;SDS011;67150;42.516;23.358;2023-03-01T09:12:22;2.10;;;2.00;;
8046;SDS011;67150;42.516;23.358;2023-03-01T09:15:10;2.53;;;2.33;;
8046;SDS011;67150;42.516;23.358;2023-03-01T09:17:55;2.00;;;1.90;;
8046;SDS011;67150;42.516;23.358;2023-03-01T09:20:42;2.17;;;2.07;;
8046;SDS011;67150;42.516;23.358;2023-03-01T09:23:28;2.30;;;2.20;;
8046;SDS011;67150;42.516;23.358;2023-03-01T09:26:17;2.40;;;2.30;;
8046;SDS011;67150;42.516;23.358;2023-03-01T09:29:05;2.33;;;2.23;;
8046;SDS011;67150;42.516;23.358;2023-03-01T09:31:50;2.43;;;2.33;;
8046;SDS011;67150;42.516;23.358;2023-03-01T09:34:39;2.00;;;1.90;;
8046;SDS011;67150;42.516;23.358;2023-03-01T09:37:38;2.83;;;2.60;;
8046;SDS011;67150;42.516;23.358;2023-03-01T09:40:26;2.27;;;2.17;;
8046;SDS011;67150;42.516;23.358;2023-03-01T09:43:18;2.30;;;2.20;;
8046;SDS011;67150;42.516;23.358;2023-03-01T09:46:09;2.40;;;2.30;;
8046;SDS011;67150;42.516;23.358;2023-03-01T09:48:59;2.40;;;2.30;;
8046;SDS011;67150;42.516;23.358;2023-03-01T09:51:54;2.50;;;2.30;;
8046;SDS011;67150;42.516;23.358;2023-03-01T09:54:43;2.53;;;2.40;;
8046;SDS011;67150;42.516;23.358;2023-03-01T09:57:30;2.53;;;2.43;;
8046;SDS011;67150;42.516;23.358;2023-03-01T10:00:26;2.70;;;2.50;;
8046;SDS011;67150;42.516;23.358;2023-03-01T10:03:23;2.50;;;2.40;;
8046;SDS011;67150;42.516;23.358;2023-03-01T10:06:14;2.83;;;2.63;;
8046;SDS011;67150;42.516;23.358;2023-03-01T10:09:05;2.60;;;2.40;;
8046;SDS011;67150;42.516;23.358;2023-03-01T10:11:55;2.70;;;2.50;;
8046;SDS011;67150;42.516;23.358;2023-03-01T10:14:43;2.90;;;2.70;;
8046;SDS011;67150;42.516;23.358;2023-03-01T10:17:39;2.90;;;2.70;;
8046;SDS011;67150;42.516;23.358;2023-03-01T10:20:33;3.20;;;2.90;;
8046;SDS011;67150;42.516;23.358;2023-03-01T10:23:27;3.10;;;2.90;;
8046;SDS011;67150;42.516;23.358;2023-03-01T10:26:30;2.87;;;2.67;;
8046;SDS011;67150;42.516;23.358;2023-03-01T10:29:25;2.90;;;2.70;;
8046;SDS011;67150;42.516;23.358;2023-03-01T10:32:17;3.37;;;3.07;;
8046;SDS011;67150;42.516;23.358;2023-03-01T10:35:16;3.27;;;3.03;;
8046;SDS011;67150;42.516;23.358;2023-03-01T10:38:05;3.13;;;2.93;;
8046;SDS011;67150;42.516;23.358;2023-03-01T10:40:53;3.23;;;3.00;;
8046;SDS011;67150;42.516;23.358;2023-03-01T10:43:43;3.30;;;3.10;;
8046;SDS011;67150;42.516;23.358;2023-03-01T10:46:31;3.40;;;3.10;;
8046;SDS011;67150;42.516;23.358;2023-03-01T10:49:19;3.80;;;3.10;;
8046;SDS011;67150;42.516;23.358;2023-03-01T10:52:16;3.17;;;2.97;;
8046;SDS011;67150;42.516;23.358;2023-03-01T10:55:19;3.37;;;3.10;;
8046;SDS011;67150;42.516;23.358;2023-03-01T10:58:17;3.20;;;3.00;;
8046;SDS011;67150;42.516;23.358;2023-03-01T11:01:05;3.30;;;3.10;;
8046;SDS011;67150;42.516;23.358;2023-03-01T11:04:10;3.60;;;3.30;;
8046;SDS011;67150;42.516;23.358;2023-03-01T11:06:58;3.43;;;3.13;;
8046;SDS011;67150;42.516;23.358;2023-03-01T11:09:50;3.60;;;3.30;;
8046;SDS011;67150;42.516;23.358;2023-03-01T11:12:37;3.40;;;3.10;;
8046;SDS011;67150;42.516;23.358;2023-03-01T11:15:24;3.60;;;3.30;;
8046;SDS011;67150;42.516;23.358;2023-03-01T11:18:19;3.73;;;3.43;;
8046;SDS011;67150;42.516;23.358;2023-03-01T11:21:06;3.67;;;3.37;;
8046;SDS011;67150;42.516;23.358;2023-03-01T11:23:54;3.77;;;3.47;;
8046;SDS011;67150;42.516;23.358;2023-03-01T11:26:43;3.53;;;3.23;;
8046;SDS011;67150;42.516;23.358;2023-03-01T11:29:33;3.50;;;3.20;;
8046;SDS011;67150;42.516;23.358;2023-03-01T11:32:23;3.63;;;3.33;;
8046;SDS011;67150;42.516;23.358;2023-03-01T11:35:14;5.10;;;3.10;;
8046;SDS011;67150;42.516;23.358;2023-03-01T11:38:09;3.60;;;3.30;;
8046;SDS011;67150;42.516;23.358;2023-03-01T11:41:06;3.90;;;3.60;;
8046;SDS011;67150;42.516;23.358;2023-03-01T11:43:59;3.47;;;3.17;;
8046;SDS011;67150;42.516;23.358;2023-03-01T11:46:58;3.60;;;3.30;;
8046;SDS011;67150;42.516;23.358;2023-03-01T11:50:02;3.33;;;3.03;;
8046;SDS011;67150;42.516;23.358;2023-03-01T11:53:05;3.37;;;3.07;;
8046;SDS011;67150;42.516;23.358;2023-03-01T11:56:05;3.23;;;3.00;;
8046;SDS011;67150;42.516;23.358;2023-03-01T11:59:07;3.80;;;3.50;;
8046;SDS011;67150;42.516;23.358;2023-03-01T12:05:38;3.60;;;3.30;;
8046;SDS011;67150;42.516;23.358;2023-03-01T12:08:53;3.87;;;3.57;;
8046;SDS011;67150;42.516;23.358;2023-03-01T12:11:52;3.57;;;3.27;;
8046;SDS011;67150;42.516;23.358;2023-03-01T12:15:02;3.80;;;3.50;;
8046;SDS011;67150;42.516;23.358;2023-03-01T12:18:09;3.77;;;3.47;;
8046;SDS011;67150;42.516;23.358;2023-03-01T12:21:23;3.73;;;3.37;;
8046;SDS011;67150;42.516;23.358;2023-03-01T12:24:33;3.70;;;3.40;;
8046;SDS011;67150;42.516;23.358;2023-03-01T12:27:38;3.47;;;3.17;;
8046;SDS011;67150;42.516;23.358;2023-03-01T12:30:51;3.83;;;3.53;;
8046;SDS011;67150;42.516;23.358;2023-03-01T12:33:49;3.17;;;2.97;;
8046;SDS011;67150;42.516;23.358;2023-03-01T12:36:49;4.20;;;3.80;;
8046;SDS011;67150;42.516;23.358;2023-03-01T12:39:46;3.90;;;3.47;;
8046;SDS011;67150;42.516;23.358;2023-03-01T12:42:48;3.70;;;3.40;;
8046;SDS011;67150;42.516;23.358;2023-03-01T12:45:48;3.70;;;3.40;;
8046;SDS011;67150;42.516;23.358;2023-03-01T12:48:41;3.90;;;3.60;;
8046;SDS011;67150;42.516;23.358;2023-03-01T12:51:34;3.17;;;2.87;;
8046;SDS011;67150;42.516;23.358;2023-03-01T12:54:26;3.10;;;2.80;;
8046;SDS011;67150;42.516;23.358;2023-03-01T12:57:15;3.57;;;3.27;;
8046;SDS011;67150;42.516;23.358;2023-03-01T13:00:12;3.47;;;3.17;;
8046;SDS011;67150;42.516;23.358;2023-03-01T13:03:15;4.10;;;3.70;;
8046;SDS011;67150;42.516;23.358;2023-03-01T13:06:11;3.13;;;2.93;;
8046;SDS011;67150;42.516;23.358;2023-03-01T13:09:05;3.20;;;2.93;;
8046;SDS011;67150;42.516;23.358;2023-03-01T13:12:00;3.70;;;3.40;;
8046;SDS011;67150;42.516;23.358;2023-03-01T13:14:46;3.70;;;3.40;;
8046;SDS011;67150;42.516;23.358;2023-03-01T13:17:33;4.27;;;3.20;;
8046;SDS011;67150;42.516;23.358;2023-03-01T13:20:34;3.73;;;3.43;;
8046;SDS011;67150;42.516;23.358;2023-03-01T13:23:35;3.67;;;3.30;;
8046;SDS011;67150;42.516;23.358;2023-03-01T13:26:22;3.70;;;3.40;;
8046;SDS011;67150;42.516;23.358;2023-03-01T13:29:11;3.67;;;3.33;;
8046;SDS011;67150;42.516;23.358;2023-03-01T13:38:44;3.50;;;3.30;;
8046;SDS011;67150;42.516;23.358;2023-03-01T13:41:50;3.23;;;3.03;;
8046;SDS011;67150;42.516;23.358;2023-03-01T13:44:38;3.60;;;3.30;;
8046;SDS011;67150;42.516;23.358;2023-03-01T13:47:25;4.33;;;3.90;;
8046;SDS011;67150;42.516;23.358;2023-03-01T13:50:16;3.47;;;3.17;;
8046;SDS011;67150;42.516;23.358;2023-03-01T13:53:07;3.50;;;3.20;;
8046;SDS011;67150;42.516;23.358;2023-03-01T13:56:00;3.60;;;3.30;;
8046;SDS011;67150;42.516;23.358;2023-03-01T13:58:49;3.77;;;3.47;;
8046;SDS011;67150;42.516;23.358;2023-03-01T14:01:38;3.50;;;3.30;;
8046;SDS011;67150;42.516;23.358;2023-03-01T14:04:25;3.67;;;3.30;;
8046;SDS011;67150;42.516;23.358;2023-03-01T14:07:17;3.53;;;3.23;;
8046;SDS011;67150;42.516;23.358;2023-03-01T14:10:07;3.37;;;3.07;;
8046;SDS011;67150;42.516;23.358;2023-03-01T14:12:59;3.60;;;3.30;;
8046;SDS011;67150;42.516;23.358;2023-03-01T14:16:01;3.57;;;3.27;;
8046;SDS011;67150;42.516;23.358;2023-03-01T14:19:00;3.80;;;3.50;;
8046;SDS011;67150;42.516;23.358;2023-03-01T14:22:01;3.73;;;3.43;;
8046;SDS011;67150;42.516;23.358;2023-03-01T14:24:57;3.70;;;3.40;;
8046;SDS011;67150;42.516;23.358;2023-03-01T14:27:50;3.53;;;3.23;;
8046;SDS011;67150;42.516;23.358;2023-03-01T14:30:41;3.83;;;3.53;;
8046;SDS011;67150;42.516;23.358;2023-03-01T14:33:29;3.83;;;3.53;;
8046;SDS011;67150;42.516;23.358;2023-03-01T14:36:25;4.57;;;4.00;;
8046;SDS011;67150;42.516;23.358;2023-03-01T14:39:17;4.17;;;3.77;;
8046;SDS011;67150;42.516;23.358;2023-03-01T14:42:05;3.53;;;3.23;;
8046;SDS011;67150;42.516;23.358;2023-03-01T14:44:54;3.90;;;3.60;;
8046;SDS011;67150;42.516;23.358;2023-03-01T14:47:43;3.37;;;3.10;;
8046;SDS011;67150;42.516;23.358;2023-03-01T14:50:31;3.60;;;3.30;;
8046;SDS011;67150;42.516;23.358;2023-03-01T14:53:18;3.73;;;3.43;;
8046;SDS011;67150;42.516;23.358;2023-03-01T14:56:12;3.90;;;3.50;;
8046;SDS011;67150;42.516;23.358;2023-03-01T14:59:01;3.30;;;3.03;;
8046;SDS011;67150;42.516;23.358;2023-03-01T15:01:49;3.80;;;3.40;;
8046;SDS011;67150;42.516;23.358;2023-03-01T15:04:36;3.60;;;3.30;;
8046;SDS011;67150;42.516;23.358;2023-03-01T15:07:24;3.53;;;3.23;;
8046;SDS011;67150;42.516;23.358;2023-03-01T15:10:19;3.40;;;3.20;;
8046;SDS011;67150;42.516;23.358;2023-03-01T15:13:11;3.50;;;3.20;;
8046;SDS011;67150;42.516;23.358;2023-03-01T15:16:02;3.37;;;3.10;;
8046;SDS011;67150;42.516;23.358;2023-03-01T15:18:54;3.80;;;3.50;;
8046;SDS011;67150;42.516;23.358;2023-03-01T15:21:42;3.40;;;3.10;;
8046;SDS011;67150;42.516;23.358;2023-03-01T15:24:32;3.40;;;3.10;;
8046;SDS011;67150;42.516;23.358;2023-03-01T15:27:21;3.37;;;3.07;;
8046;SDS011;67150;42.516;23.358;2023-03-01T15:30:13;3.73;;;3.43;;
8046;SDS011;67150;42.516;23.358;2023-03-01T15:33:17;3.20;;;3.00;;
8046;SDS011;67150;42.516;23.358;2023-03-01T15:39:30;3.23;;;3.03;;
8046;SDS011;67150;42.516;23.358;2023-03-01T15:42:36;3.33;;;3.13;;
8046;SDS011;67150;42.516;23.358;2023-03-01T15:45:23;3.30;;;3.00;;
8046;SDS011;67150;42.516;23.358;2023-03-01T15:48:14;3.20;;;2.90;;
8046;SDS011;67150;42.516;23.358;2023-03-01T15:51:03;3.30;;;3.00;;
8046;SDS011;67150;42.516;23.358;2023-03-01T15:53:51;2.87;;;2.67;;
8046;SDS011;67150;42.516;23.358;2023-03-01T15:56:38;2.83;;;2.63;;
8046;SDS011;67150;42.516;23.358;2023-03-01T15:59:24;3.00;;;2.80;;
8046;SDS011;67150;42.516;23.358;2023-03-01T16:02:10;2.77;;;2.57;;
8046;SDS011;67150;42.516;23.358;2023-03-01T16:04:56;2.70;;;2.50;;
8046;SDS011;67150;42.516;23.358;2023-03-01T16:07:43;2.70;;;2.50;;
8046;SDS011;67150;42.516;23.358;2023-03-01T16:10:31;2.70;;;2.50;;
8046;SDS011;67150;42.516;23.358;2023-03-01T16:13:17;2.70;;;2.50;;
8046;SDS011;67150;42.516;23.358;2023-03-01T16:16:03;2.37;;;2.23;;
8046;SDS011;67150;42.516;23.358;2023-03-01T16:18:50;2.50;;;2.30;;
8046;SDS011;67150;42.516;23.358;2023-03-01T16:21:38;2.50;;;2.30;;
8046;SDS011;67150;42.516;23.358;2023-03-01T16:24:23;2.47;;;2.27;;
8046;SDS011;67150;42.516;23.358;2023-03-01T16:27:11;2.37;;;2.20;;
8046;SDS011;67150;42.516;23.358;2023-03-01T16:29:59;2.30;;;2.20;;
8046;SDS011;67150;42.516;23.358;2023-03-01T16:32:45;2.43;;;2.23;;
8046;SDS011;67150;42.516;23.358;2023-03-01T16:35:32;2.30;;;2.20;;
8046;SDS011;67150;42.516;23.358;2023-03-01T16:38:18;2.10;;;2.00;;
8046;SDS011;67150;42.516;23.358;2023-03-01T16:41:04;2.10;;;2.00;;
8046;SDS011;67150;42.516;23.358;2023-03-01T16:43:53;2.20;;;2.10;;
8046;SDS011;67150;42.516;23.358;2023-03-01T16:46:38;1.87;;;1.77;;
8046;SDS011;67150;42.516;23.358;2023-03-01T16:49:27;2.20;;;2.10;;
8046;SDS011;67150;42.516;23.358;2023-03-01T16:52:13;1.90;;;1.80;;
8046;SDS011;67150;42.516;23.358;2023-03-01T16:54:59;2.30;;;2.10;;
8046;SDS011;67150;42.516;23.358;2023-03-01T16:57:45;1.90;;;1.80;;
8046;SDS011;67150;42.516;23.358;2023-03-01T17:00:33;2.27;;;2.10;;
8046;SDS011;67150;42.516;23.358;2023-03-01T17:03:19;2.10;;;2.00;;
8046;SDS011;67150;42.516;23.358;2023-03-01T17:06:07;1.80;;;1.70;;
8046;SDS011;67150;42.516;23.358;2023-03-01T17:08:54;2.10;;;2.00;;
8046;SDS011;67150;42.516;23.358;2023-03-01T17:11:41;2.20;;;2.00;;
8046;SDS011;67150;42.516;23.358;2023-03-01T17:14:27;1.83;;;1.73;;